Time;durP1;ratioP1;P1;durP2;ratioP2;P2;SDS_P1;SDS_P2;PMS_P1;PMS_P2;Temp;Humidity;BMP_temperature;BMP_pressure;BME280_temperature;BME280_humidity;BME280_pressure;Samples;Min_cycle;Max_cycle;Signal;HPM_P1;HPM_P2
2023/11/15 00:00:07;;;;;;;12.40;9.80;;;4.60;99.90;;;;;;5101951;28;20015;-90
2023/11/15 00:02:34;;;;;;;11.70;9.15;;;4.60;99.90;;;;;;5104555;28;20052;-90
2023/11/15 00:05:00;;;;;;;12.70;9.10;;;4.70;99.90;;;;;;5121920;28;20070;-89
2023/11/15 00:07:26;;;;;;;13.38;8.68;;;4.70;99.90;;;;;;5105134;28;20015;-90
2023/11/15 00:09:53;;;;;;;11.35;8.55;;;4.70;99.90;;;;;;5101021;28;20027;-91
2023/11/15 00:12:19;;;;;;;11.80;9.48;;;4.70;99.90;;;;;;5079493;28;20020;-93
2023/11/15 00:14:45;;;;;;;11.90;8.63;;;4.70;99.90;;;;;;5078626;28;20020;-90
2023/11/15 00:17:11;;;;;;;16.23;9.43;;;4.70;99.90;;;;;;5085725;28;20521;-92
2023/11/15 00:19:37;;;;;;;12.02;9.38;;;4.60;99.90;;;;;;5085275;28;20027;-90
2023/11/15 00:22:04;;;;;;;19.65;9.45;;;4.70;99.90;;;;;;5088617;28;20091;-90
2023/11/15 00:24:31;;;;;;;11.98;9.10;;;4.60;99.90;;;;;;5091613;28;20489;-91
2023/11/15 00:26:59;;;;;;;12.50;8.57;;;4.50;99.90;;;;;;5110644;28;20030;-91
2023/11/15 00:29:43;;;;;;;11.18;8.18;;;4.50;99.90;;;;;;5108839;28;20023;-91
2023/11/15 00:32:09;;;;;;;14.13;8.68;;;4.50;99.90;;;;;;5099040;28;20027;-90
2023/11/15 00:34:35;;;;;;;10.03;8.67;;;4.50;99.90;;;;;;5089825;28;20384;-91
2023/11/15 00:37:01;;;;;;;11.70;9.23;;;4.50;99.90;;;;;;5074020;28;20519;-91
2023/11/15 00:39:28;;;;;;;12.68;8.90;;;4.50;99.90;;;;;;5092155;28;20055;-92
2023/11/15 00:41:54;;;;;;;14.77;9.73;;;4.50;99.90;;;;;;5115049;28;20036;-91
2023/11/15 00:44:24;;;;;;;13.73;9.13;;;4.50;99.90;;;;;;5098421;28;20043;-90
2023/11/15 00:46:50;;;;;;;13.73;9.75;;;4.50;99.90;;;;;;5110495;28;20020;-90
2023/11/15 00:49:15;;;;;;;14.10;10.73;;;4.60;99.90;;;;;;5107844;28;20027;-92
2023/11/15 00:51:41;;;;;;;14.30;10.32;;;4.60;99.90;;;;;;5112488;28;20062;-85
2023/11/15 00:54:08;;;;;;;15.53;9.03;;;4.70;99.90;;;;;;5119272;28;20012;-83
2023/11/15 00:56:34;;;;;;;13.20;9.60;;;4.60;99.90;;;;;;5105750;28;20035;-88
2023/11/15 00:59:00;;;;;;;12.55;9.55;;;4.60;99.90;;;;;;5105373;28;20079;-89
2023/11/15 01:01:27;;;;;;;12.38;9.38;;;4.70;99.90;;;;;;5108497;28;20036;-89
2023/11/15 01:03:58;;;;;;;16.58;10.32;;;4.70;99.90;;;;;;5097591;28;20040;-92
2023/11/15 01:06:24;;;;;;;15.25;10.80;;;4.70;99.90;;;;;;5120852;28;20028;-92
2023/11/15 01:08:52;;;;;;;13.70;9.07;;;4.70;99.90;;;;;;5116945;28;20016;-90
2023/11/15 01:11:19;;;;;;;13.70;9.63;;;4.70;99.90;;;;;;5114902;28;20079;-86
2023/11/15 01:13:46;;;;;;;11.77;9.40;;;4.80;99.90;;;;;;5113660;28;20033;-89
2023/11/15 01:16:17;;;;;;;14.77;8.88;;;4.80;99.90;;;;;;5112792;28;20027;-89
2023/11/15 01:18:43;;;;;;;12.77;9.52;;;4.70;99.90;;;;;;5117524;28;20028;-90
2023/11/15 01:21:11;;;;;;;11.65;8.90;;;4.70;99.90;;;;;;5108095;28;20023;-91
2023/11/15 01:23:37;;;;;;;16.58;9.93;;;4.70;99.90;;;;;;5109853;28;20019;-85
2023/11/15 01:26:03;;;;;;;13.95;9.23;;;4.70;99.90;;;;;;5131812;28;20039;-92
2023/11/15 01:28:29;;;;;;;15.70;10.30;;;4.70;99.90;;;;;;5108812;28;20092;-89
2023/11/15 01:30:55;;;;;;;12.07;8.98;;;4.70;99.90;;;;;;5100391;28;20032;-91
2023/11/15 01:33:21;;;;;;;12.07;9.45;;;4.70;99.90;;;;;;5119833;28;20032;-90
2023/11/15 01:35:48;;;;;;;12.07;8.88;;;4.70;99.90;;;;;;5105521;28;20023;-90
2023/11/15 01:38:15;;;;;;;14.55;10.43;;;4.70;99.90;;;;;;5098392;28;20027;-90
2023/11/15 01:40:42;;;;;;;12.82;9.10;;;4.60;99.90;;;;;;5106217;28;20046;-89
2023/11/15 01:43:10;;;;;;;14.27;9.07;;;4.50;99.90;;;;;;5114768;28;20528;-92
2023/11/15 01:45:38;;;;;;;11.70;9.68;;;4.50;99.90;;;;;;5101160;28;20015;-91
2023/11/15 01:48:04;;;;;;;13.00;9.63;;;4.30;99.90;;;;;;5092656;28;20404;-93
2023/11/15 01:50:32;;;;;;;13.68;9.43;;;4.40;99.90;;;;;;5096412;28;20035;-90
2023/11/15 01:53:00;;;;;;;11.93;9.20;;;4.30;99.90;;;;;;5091756;28;20047;-91
2023/11/15 01:55:28;;;;;;;15.20;9.70;;;4.30;99.90;;;;;;5105262;28;20587;-91
2023/11/15 01:57:54;;;;;;;;;;;4.30;99.90;;;;;;5118240;28;20024;-89
2023/11/15 02:00:20;;;;;;;15.20;10.02;;;4.30;99.90;;;;;;5100098;28;19942;-89
2023/11/15 02:02:46;;;;;;;14.55;10.30;;;4.30;99.90;;;;;;5103968;28;20056;-90
2023/11/15 02:05:13;;;;;;;13.23;9.05;;;4.30;99.90;;;;;;5098554;28;20064;-91
2023/11/15 02:07:40;;;;;;;14.33;10.53;;;4.30;99.90;;;;;;5080945;28;20052;-91
2023/11/15 02:10:07;;;;;;;15.55;9.75;;;4.40;99.90;;;;;;5098762;28;20071;-90
2023/11/15 02:12:33;;;;;;;17.40;10.52;;;4.40;99.90;;;;;;5099952;28;20024;-90
2023/11/15 02:15:01;;;;;;;14.95;10.55;;;4.40;99.90;;;;;;5087944;28;20024;-92
2023/11/15 02:17:27;;;;;;;15.07;9.23;;;4.40;99.90;;;;;;5086907;28;20028;-91
2023/11/15 02:19:54;;;;;;;14.65;9.70;;;4.50;99.90;;;;;;5068339;28;20028;-92
2023/11/15 02:22:20;;;;;;;13.20;9.48;;;4.50;99.90;;;;;;5081644;28;20032;-91
2023/11/15 02:24:46;;;;;;;14.70;10.20;;;4.50;99.90;;;;;;5075983;28;20041;-90
2023/11/15 02:27:12;;;;;;;12.73;9.18;;;4.50;99.90;;;;;;5093653;28;20020;-90
2023/11/15 02:29:39;;;;;;;14.15;10.38;;;4.40;99.90;;;;;;5079602;28;20453;-90
2023/11/15 02:32:06;;;;;;;15.70;10.88;;;4.40;99.90;;;;;;5103514;28;20106;-89
2023/11/15 02:34:32;;;;;;;13.10;9.93;;;4.40;99.90;;;;;;5116646;28;20040;-91
2023/11/15 02:36:58;;;;;;;13.60;9.97;;;4.40;99.90;;;;;;5114532;28;20040;-90
2023/11/15 02:39:25;;;;;;;15.60;10.65;;;4.40;99.90;;;;;;5109996;28;20050;-90
2023/11/15 02:41:51;;;;;;;12.60;9.57;;;4.40;99.90;;;;;;5114815;28;20046;-89
2023/11/15 02:44:17;;;;;;;14.05;9.95;;;4.40;99.90;;;;;;5089738;28;20671;-91
2023/11/15 02:46:43;;;;;;;16.52;11.65;;;4.40;99.90;;;;;;5098667;28;20054;-91
2023/11/15 02:49:08;;;;;;;17.40;10.20;;;4.40;99.90;;;;;;5096368;28;20016;-93
2023/11/15 02:51:35;;;;;;;15.48;10.00;;;4.40;99.90;;;;;;5107981;28;20004;-91
2023/11/15 02:54:03;;;;;;;15.95;11.05;;;4.30;99.90;;;;;;5120008;28;20028;-90
2023/11/15 02:56:31;;;;;;;13.43;9.88;;;4.30;99.90;;;;;;5098932;28;20032;-91
2023/11/15 02:58:56;;;;;;;15.20;10.55;;;4.30;99.90;;;;;;5117848;28;20012;-89
2023/11/15 03:01:22;;;;;;;13.30;9.15;;;4.30;99.90;;;;;;5108920;28;20361;-90
2023/11/15 03:03:48;;;;;;;13.43;9.85;;;4.40;99.90;;;;;;5124538;28;20032;-91
2023/11/15 03:06:14;;;;;;;14.77;10.02;;;4.40;99.90;;;;;;5103535;28;20019;-90
2023/11/15 03:08:41;;;;;;;14.52;9.48;;;4.40;99.90;;;;;;5110339;28;20031;-89
2023/11/15 03:11:06;;;;;;;14.20;10.23;;;4.50;99.90;;;;;;5099031;28;20153;-90
2023/11/15 03:13:33;;;;;;;15.73;10.48;;;4.50;99.90;;;;;;5131196;28;20016;-90
2023/11/15 03:16:01;;;;;;;15.50;11.52;;;4.50;99.90;;;;;;5095814;28;20028;-88
2023/11/15 03:18:27;;;;;;;16.98;10.13;;;4.50;99.90;;;;;;5124456;28;20019;-90
2023/11/15 03:20:52;;;;;;;15.27;11.55;;;4.40;99.90;;;;;;5110579;28;20039;-92
2023/11/15 03:23:19;;;;;;;17.13;10.90;;;4.40;99.90;;;;;;5104483;28;20027;-91
2023/11/15 03:25:45;;;;;;;14.40;9.43;;;4.40;99.90;;;;;;5099527;28;20016;-85
2023/11/15 03:28:11;;;;;;;12.43;9.68;;;4.40;99.90;;;;;;5132970;28;20024;-82
2023/11/15 03:30:37;;;;;;;16.98;11.38;;;4.40;99.90;;;;;;5114114;28;20012;-85
2023/11/15 03:33:05;;;;;;;20.27;11.73;;;4.40;99.90;;;;;;5122882;28;20012;-89
2023/11/15 03:35:31;;;;;;;16.00;9.90;;;4.30;99.90;;;;;;5101991;28;20023;-89
2023/11/15 03:37:58;;;;;;;19.53;11.57;;;4.30;99.90;;;;;;5119655;28;20042;-89
2023/11/15 03:40:24;;;;;;;15.38;10.70;;;4.20;99.90;;;;;;5105998;28;20260;-89
2023/11/15 03:42:50;;;;;;;17.38;11.30;;;4.20;99.90;;;;;;5115744;28;20036;-90
2023/11/15 03:45:16;;;;;;;15.82;10.57;;;4.20;99.90;;;;;;5099039;28;20031;-89
2023/11/15 03:47:42;;;;;;;22.05;11.00;;;4.20;99.90;;;;;;5117183;28;20020;-91
2023/11/15 03:50:09;;;;;;;16.52;10.82;;;4.20;99.90;;;;;;5095529;28;20015;-90
2023/11/15 03:52:35;;;;;;;13.73;10.27;;;4.20;99.90;;;;;;5099405;28;20030;-91
2023/11/15 03:55:01;;;;;;;15.50;11.20;;;4.20;99.90;;;;;;5090355;28;20054;-91
2023/11/15 03:57:27;;;;;;;16.55;11.52;;;4.20;99.90;;;;;;5106510;28;20044;-89
2023/11/15 03:59:54;;;;;;;18.10;11.10;;;4.10;99.90;;;;;;5089134;28;20056;-91
2023/11/15 04:02:22;;;;;;;15.77;10.48;;;4.20;99.90;;;;;;5093766;28;20033;-90
2023/11/15 04:04:47;;;;;;;;;;;4.30;99.90;;;;;;5086154;28;20036;-89
2023/11/15 04:07:13;;;;;;;14.38;10.65;;;4.30;99.90;;;;;;5085980;28;19914;-82
2023/11/15 04:09:40;;;;;;;13.27;10.23;;;4.40;99.90;;;;;;5108589;28;20016;-87
2023/11/15 04:12:06;;;;;;;16.10;11.43;;;4.40;99.90;;;;;;5106145;28;20008;-90
2023/11/15 04:14:34;;;;;;;15.43;9.98;;;4.40;99.90;;;;;;5090612;28;20032;-92
2023/11/15 04:17:01;;;;;;;17.85;11.75;;;4.30;99.90;;;;;;5082917;28;20054;-89
2023/11/15 04:19:30;;;;;;;16.27;11.75;;;4.30;99.90;;;;;;5044135;28;20056;-90
2023/11/15 04:21:55;;;;;;;16.45;11.20;;;4.30;99.90;;;;;;5063595;28;20044;-90
2023/11/15 04:24:23;;;;;;;15.60;10.23;;;4.40;99.90;;;;;;5045255;28;20029;-91
2023/11/15 04:26:51;;;;;;;14.70;10.07;;;4.40;99.90;;;;;;5040684;28;20029;-89
2023/11/15 04:29:18;;;;;;;14.57;10.60;;;4.40;99.90;;;;;;5065053;28;20050;-92
2023/11/15 04:31:44;;;;;;;;;;;4.40;99.90;;;;;;5071715;28;20022;-91
2023/11/15 04:34:10;;;;;;;15.30;10.65;;;4.40;99.90;;;;;;5068351;28;19899;-88
2023/11/15 04:36:36;;;;;;;14.10;10.80;;;4.30;99.90;;;;;;5066296;28;20093;-88
2023/11/15 04:39:07;;;;;;;15.18;10.48;;;4.40;99.90;;;;;;5070472;28;20054;-89
2023/11/15 04:41:35;;;;;;;18.10;10.43;;;4.40;99.90;;;;;;5062098;28;20057;-88
2023/11/15 04:44:04;;;;;;;14.95;11.77;;;4.40;99.90;;;;;;5041442;28;20037;-89
2023/11/15 04:46:31;;;;;;;13.18;9.45;;;4.40;99.90;;;;;;5069899;28;20143;-90
2023/11/15 04:48:57;;;;;;;13.88;10.02;;;4.40;99.90;;;;;;5060139;28;20032;-90
2023/11/15 04:51:23;;;;;;;17.42;11.25;;;4.40;99.90;;;;;;5068932;28;20040;-88
2023/11/15 04:53:48;;;;;;;13.98;10.55;;;4.40;99.90;;;;;;5065928;28;20025;-88
2023/11/15 04:56:15;;;;;;;16.08;11.35;;;4.40;99.90;;;;;;5074120;28;20024;-90
2023/11/15 04:58:41;;;;;;;11.70;9.40;;;4.40;99.90;;;;;;5057985;28;20040;-88
2023/11/15 05:01:07;;;;;;;15.52;10.80;;;4.40;99.90;;;;;;5051500;28;20532;-85
2023/11/15 05:03:33;;;;;;;17.65;11.18;;;4.50;99.90;;;;;;5057208;28;20037;-86
2023/11/15 05:05:59;;;;;;;12.95;10.15;;;4.50;99.90;;;;;;5068139;28;20059;-86
2023/11/15 05:08:25;;;;;;;12.60;10.05;;;4.50;99.90;;;;;;5059443;28;20053;-86
2023/11/15 05:10:50;;;;;;;15.50;10.43;;;4.40;99.90;;;;;;5094374;28;20047;-86
2023/11/15 05:13:17;;;;;;;17.73;11.63;;;4.40;99.90;;;;;;5094237;28;20025;-86
2023/11/15 05:15:43;;;;;;;14.93;10.38;;;4.30;99.90;;;;;;5079053;28;20549;-86
2023/11/15 05:18:09;;;;;;;16.65;10.73;;;4.30;99.90;;;;;;5081659;28;20017;-85
2023/11/15 05:20:37;;;;;;;14.82;10.68;;;4.20;99.90;;;;;;5097213;28;20027;-86
2023/11/15 05:23:03;;;;;;;13.98;10.70;;;4.20;99.90;;;;;;5076876;28;20067;-84
2023/11/15 05:25:30;;;;;;;17.38;11.15;;;4.10;99.90;;;;;;5089283;28;20477;-84
2023/11/15 05:27:56;;;;;;;14.25;10.88;;;4.00;99.90;;;;;;5088729;28;20355;-85
2023/11/15 05:30:21;;;;;;;16.88;11.13;;;4.00;99.90;;;;;;5097353;28;20081;-87
2023/11/15 05:32:47;;;;;;;14.50;10.23;;;4.00;99.90;;;;;;5102348;28;20131;-88
2023/11/15 05:35:15;;;;;;;14.55;11.23;;;4.10;99.90;;;;;;5104795;28;20020;-89
2023/11/15 05:37:40;;;;;;;16.67;10.82;;;4.20;99.90;;;;;;5100381;28;20020;-86
2023/11/15 05:40:07;;;;;;;14.77;10.88;;;4.30;99.90;;;;;;5097589;28;20031;-85
2023/11/15 05:42:33;;;;;;;17.13;11.03;;;4.30;99.90;;;;;;5110298;28;20050;-89
2023/11/15 05:44:59;;;;;;;16.15;10.10;;;4.30;99.90;;;;;;5090122;28;20070;-88
2023/11/15 05:47:26;;;;;;;14.70;9.27;;;4.40;99.90;;;;;;5105197;28;20011;-88
2023/11/15 05:49:55;;;;;;;16.55;11.02;;;4.40;99.90;;;;;;5118643;28;20023;-89
2023/11/15 05:52:22;;;;;;;18.98;13.13;;;4.50;99.90;;;;;;5115945;28;20079;-88
2023/11/15 05:54:47;;;;;;;15.73;10.20;;;4.50;99.90;;;;;;5120871;28;20031;-91
2023/11/15 05:57:14;;;;;;;17.02;11.40;;;4.50;99.90;;;;;;5122171;28;20034;-91
2023/11/15 05:59:40;;;;;;;19.02;10.93;;;4.60;99.90;;;;;;5088670;28;20031;-91
2023/11/15 06:02:06;;;;;;;16.20;11.65;;;4.60;99.90;;;;;;5099574;28;20008;-91
2023/11/15 06:04:33;;;;;;;17.40;11.40;;;4.60;99.90;;;;;;5103659;28;20056;-92
2023/11/15 06:06:59;;;;;;;18.10;11.32;;;4.60;99.90;;;;;;5107718;28;20008;-91
2023/11/15 06:09:27;;;;;;;17.83;11.88;;;4.70;99.90;;;;;;5100369;28;20524;-93
2023/11/15 06:11:54;;;;;;;18.05;11.02;;;4.70;99.90;;;;;;5099108;28;20020;-94
2023/11/15 06:14:21;;;;;;;16.75;11.25;;;4.70;99.90;;;;;;5113407;28;20024;-91
2023/11/15 06:16:47;;;;;;;17.70;10.90;;;4.70;99.90;;;;;;5120174;28;20019;-92
2023/11/15 06:19:13;;;;;;;17.10;11.23;;;4.80;99.90;;;;;;5094458;28;20054;-92
2023/11/15 06:21:46;;;;;;;15.70;10.68;;;4.80;99.90;;;;;;5102287;28;20024;-91
2023/11/15 06:24:15;;;;;;;15.18;10.95;;;4.80;99.90;;;;;;5114246;28;20095;-93
2023/11/15 06:26:42;;;;;;;19.13;10.07;;;4.80;99.90;;;;;;5086457;28;20042;-92
2023/11/15 06:29:08;;;;;;;14.33;9.73;;;5.00;99.90;;;;;;5094171;28;20110;-92
2023/11/15 06:31:38;;;;;;;15.93;10.77;;;4.90;99.90;;;;;;5103329;28;20016;-93
2023/11/15 06:34:05;;;;;;;12.88;10.15;;;5.00;99.90;;;;;;5088646;28;20024;-92
2023/11/15 06:36:36;;;;;;;20.42;11.55;;;5.00;99.90;;;;;;5086979;28;20447;-89
2023/11/15 06:39:08;;;;;;;16.48;10.80;;;5.00;99.90;;;;;;5095653;28;20028;-89
2023/11/15 06:41:38;;;;;;;19.55;10.65;;;5.10;99.90;;;;;;5106604;28;20135;-85
2023/11/15 06:44:05;;;;;;;14.75;9.73;;;5.20;99.90;;;;;;5111737;28;20028;-90
2023/11/15 06:46:31;;;;;;;12.88;9.30;;;5.30;99.90;;;;;;5111403;28;20464;-91
2023/11/15 06:48:58;;;;;;;14.95;10.15;;;5.40;99.80;;;;;;5119140;28;20080;-88
2023/11/15 06:51:24;;;;;;;17.02;9.68;;;5.60;99.70;;;;;;5118683;28;20087;-84
2023/11/15 06:53:53;;;;;;;15.27;9.75;;;5.70;99.30;;;;;;5100954;28;20031;-92
2023/11/15 06:56:19;;;;;;;23.83;15.13;;;5.80;99.10;;;;;;5107796;28;20023;-91
2023/11/15 06:58:44;;;;;;;15.15;10.02;;;6.00;98.80;;;;;;5112006;28;20036;-93
2023/11/15 07:01:11;;;;;;;17.27;10.63;;;6.20;98.50;;;;;;5098051;28;20190;-84
2023/11/15 07:03:40;;;;;;;12.77;9.73;;;6.20;98.30;;;;;;5108849;28;20038;-94
2023/11/15 07:06:06;;;;;;;12.07;9.35;;;6.20;97.90;;;;;;5104201;28;20008;-91
2023/11/15 07:08:33;;;;;;;16.27;10.07;;;6.10;97.70;;;;;;5104186;28;20047;-93
2023/11/15 07:11:01;;;;;;;14.15;9.57;;;6.00;97.60;;;;;;5095014;28;20019;-93
2023/11/15 07:13:27;;;;;;;20.13;10.15;;;5.90;97.70;;;;;;5080717;28;20021;-90
2023/11/15 07:15:53;;;;;;;16.15;11.38;;;5.80;97.90;;;;;;5098578;28;20028;-91
2023/11/15 07:18:22;;;;;;;12.50;9.95;;;5.80;97.90;;;;;;5087548;28;20031;-90
2023/11/15 07:20:49;;;;;;;13.13;9.20;;;5.90;97.80;;;;;;5088907;28;20401;-92
2023/11/15 07:23:17;;;;;;;17.52;10.35;;;5.90;97.60;;;;;;5100093;28;20119;-91
2023/11/15 07:25:43;;;;;;;18.38;10.52;;;5.90;97.50;;;;;;5092460;28;20155;-92
2023/11/15 07:28:09;;;;;;;14.43;9.13;;;5.90;97.60;;;;;;5097690;28;20046;-93
2023/11/15 07:30:35;;;;;;;14.00;9.40;;;6.00;97.40;;;;;;5100623;28;20020;-88
2023/11/15 07:33:01;;;;;;;16.40;9.57;;;5.90;97.10;;;;;;5102984;28;20088;-92
2023/11/15 07:35:27;;;;;;;13.93;9.95;;;6.00;97.30;;;;;;5097679;28;20031;-92
2023/11/15 07:37:53;;;;;;;16.17;10.57;;;6.00;97.10;;;;;;5098023;28;20410;-92
2023/11/15 07:40:22;;;;;;;19.00;10.68;;;6.00;97.00;;;;;;5096025;28;20036;-94
2023/11/15 07:42:49;;;;;;;14.63;10.27;;;5.80;97.00;;;;;;5102834;28;20048;-92
2023/11/15 07:45:18;;;;;;;22.98;11.18;;;5.70;97.20;;;;;;5097317;28;20068;-92
2023/11/15 07:47:45;;;;;;;15.68;11.15;;;5.60;97.40;;;;;;5093713;28;20056;-93
2023/11/15 07:50:11;;;;;;;17.77;11.75;;;5.60;97.50;;;;;;5091951;28;20028;-92
2023/11/15 07:52:37;;;;;;;21.65;11.38;;;5.60;97.50;;;;;;5088621;28;20028;-92
2023/11/15 07:55:05;;;;;;;29.85;11.75;;;5.60;97.60;;;;;;5103332;28;20059;-91
2023/11/15 07:57:31;;;;;;;15.57;10.82;;;5.60;97.60;;;;;;5090531;28;20016;-92
2023/11/15 07:59:57;;;;;;;15.18;10.70;;;5.60;97.40;;;;;;5102150;28;20028;-91
2023/11/15 08:02:23;;;;;;;14.88;10.98;;;5.50;97.30;;;;;;5085779;28;20090;-93
2023/11/15 08:04:50;;;;;;;17.65;11.65;;;5.40;97.40;;;;;;5104992;28;20088;-92
2023/11/15 08:07:17;;;;;;;31.08;13.65;;;5.50;97.80;;;;;;5090325;28;20028;-93
2023/11/15 08:09:43;;;;;;;24.65;11.75;;;5.70;98.00;;;;;;5078821;28;20043;-93
2023/11/15 08:12:10;;;;;;;14.20;9.70;;;6.10;97.90;;;;;;5083300;28;20123;-92
2023/11/15 08:14:35;;;;;;;16.95;11.25;;;6.30;97.10;;;;;;5085388;28;20024;-91
2023/11/15 08:17:01;;;;;;;15.38;11.13;;;6.70;97.00;;;;;;5093389;28;20036;-93
2023/11/15 08:19:27;;;;;;;20.70;10.77;;;7.20;96.70;;;;;;5106418;28;20032;-91
2023/11/15 08:21:53;;;;;;;16.02;10.35;;;7.60;95.70;;;;;;5081838;28;20069;-92
2023/11/15 08:24:24;;;;;;;13.55;10.77;;;7.80;94.60;;;;;;5084826;28;20051;-90
2023/11/15 08:26:52;;;;;;;18.70;12.65;;;8.00;94.20;;;;;;5105012;28;20044;-92
2023/11/15 08:29:18;;;;;;;20.80;10.98;;;7.90;93.70;;;;;;5106928;28;20058;-92
2023/11/15 08:31:44;;;;;;;21.77;12.43;;;7.90;93.70;;;;;;5093393;28;20016;-90
2023/11/15 08:34:11;;;;;;;16.77;11.68;;;7.80;93.50;;;;;;5103655;28;20038;-93
2023/11/15 08:36:40;;;;;;;23.90;12.00;;;7.50;93.40;;;;;;5094025;28;20024;-90
2023/11/15 08:39:12;;;;;;;20.45;11.85;;;7.20;93.50;;;;;;5098993;28;20021;-90
2023/11/15 08:41:42;;;;;;;19.50;11.43;;;7.00;93.90;;;;;;5090618;28;20055;-93
2023/11/15 08:44:09;;;;;;;16.70;12.30;;;6.80;94.10;;;;;;5095306;28;20039;-93
2023/11/15 08:46:39;;;;;;;17.60;11.27;;;6.60;94.50;;;;;;5097641;28;20058;-92
2023/11/15 08:49:06;;;;;;;20.48;13.23;;;6.40;94.70;;;;;;5093433;28;20028;-91
2023/11/15 08:51:32;;;;;;;18.60;12.70;;;6.30;94.70;;;;;;5111472;28;20031;-92
2023/11/15 08:53:58;;;;;;;21.10;12.20;;;6.20;94.90;;;;;;5119601;28;20028;-92
2023/11/15 08:56:25;;;;;;;15.65;11.55;;;6.10;95.00;;;;;;5109407;28;20036;-93
2023/11/15 08:58:55;;;;;;;19.45;12.48;;;6.00;95.30;;;;;;5106768;28;20036;-93
2023/11/15 09:01:24;;;;;;;18.30;12.00;;;5.90;95.40;;;;;;5095347;28;20032;-92
2023/11/15 09:03:55;;;;;;;22.23;12.52;;;5.90;95.60;;;;;;5107301;28;20040;-92
2023/11/15 09:06:24;;;;;;;23.08;12.75;;;5.80;95.70;;;;;;5102180;28;20032;-91
2023/11/15 09:08:54;;;;;;;19.17;12.10;;;5.70;95.70;;;;;;5086720;28;20386;-91
2023/11/15 09:11:21;;;;;;;18.17;12.65;;;5.60;95.80;;;;;;5102548;28;20016;-93
2023/11/15 09:13:47;;;;;;;20.75;14.43;;;5.60;96.00;;;;;;5116166;28;20030;-91
2023/11/15 09:16:12;;;;;;;19.52;14.70;;;5.50;96.20;;;;;;5109885;28;20043;-91
2023/11/15 09:18:42;;;;;;;18.17;11.98;;;5.50;96.30;;;;;;5105769;28;20036;-93
2023/11/15 09:21:10;;;;;;;21.83;14.98;;;5.40;96.40;;;;;;5082262;28;20031;-95
2023/11/15 09:23:41;;;;;;;19.67;12.07;;;5.50;96.50;;;;;;5091527;28;20126;-92
2023/11/15 09:26:15;;;;;;;19.38;13.30;;;5.50;96.60;;;;;;5087989;28;20520;-94
2023/11/15 09:28:42;;;;;;;18.73;12.75;;;5.60;96.60;;;;;;5095503;28;20087;-93
2023/11/15 09:31:08;;;;;;;20.40;12.38;;;5.70;96.40;;;;;;5106257;28;20030;-93
2023/11/15 09:33:35;;;;;;;19.30;13.43;;;5.70;96.30;;;;;;5103885;28;20060;-92
2023/11/15 09:36:05;;;;;;;19.27;12.52;;;5.80;96.30;;;;;;5097450;28;20115;-91
2023/11/15 09:38:32;;;;;;;16.25;11.90;;;6.00;96.10;;;;;;5088453;28;20100;-92
2023/11/15 09:41:01;;;;;;;18.25;12.40;;;6.00;95.90;;;;;;5092447;28;20035;-92
2023/11/15 09:43:28;;;;;;;17.63;12.65;;;6.00;96.00;;;;;;5081848;28;20588;-92
2023/11/15 09:45:58;;;;;;;24.67;13.13;;;6.10;95.70;;;;;;5101941;28;20079;-92
2023/11/15 09:48:27;;;;;;;16.33;11.85;;;6.30;95.50;;;;;;5103720;28;20056;-91
2023/11/15 09:50:55;;;;;;;24.25;13.70;;;6.40;95.30;;;;;;5094930;28;20432;-91
2023/11/15 09:53:23;;;;;;;19.67;12.65;;;6.40;95.00;;;;;;5085188;28;20107;-90
2023/11/15 09:55:51;;;;;;;14.98;11.13;;;6.50;95.20;;;;;;5109444;28;20024;-94
2023/11/15 09:58:17;;;;;;;18.65;12.77;;;6.60;94.80;;;;;;5109195;28;20043;-92
2023/11/15 10:00:46;;;;;;;17.88;11.65;;;6.60;94.70;;;;;;5094560;28;20032;-93
2023/11/15 10:03:18;;;;;;;19.75;12.38;;;6.60;94.50;;;;;;5110476;28;20048;-94
2023/11/15 10:05:59;;;;;;;17.50;11.77;;;6.70;94.40;;;;;;5109123;28;20028;-93
2023/11/15 10:08:27;;;;;;;16.20;12.05;;;6.90;94.30;;;;;;5104853;28;20020;-92
2023/11/15 10:11:07;;;;;;;20.38;11.85;;;7.10;94.10;;;;;;5095062;28;20015;-88
2023/11/15 10:13:36;;;;;;;15.18;11.43;;;7.30;93.60;;;;;;5104573;28;20092;-93
2023/11/15 10:16:05;;;;;;;14.88;10.35;;;7.30;93.30;;;;;;5114796;28;20024;-93
2023/11/15 10:18:34;;;;;;;16.35;9.93;;;7.20;93.00;;;;;;5095002;28;20025;-93
2023/11/15 10:21:07;;;;;;;20.63;11.07;;;7.10;92.70;;;;;;5094290;28;20120;-92
2023/11/15 10:23:33;;;;;;;18.83;10.50;;;7.00;92.60;;;;;;5108359;28;20401;-92
2023/11/15 10:26:02;;;;;;;19.02;12.45;;;7.00;92.80;;;;;;5104168;28;20020;-93
2023/11/15 10:28:35;;;;;;;17.10;10.93;;;6.90;93.00;;;;;;5108883;28;20077;-92
2023/11/15 10:31:07;;;;;;;28.40;13.30;;;7.00;93.10;;;;;;5105474;28;20016;-93
2023/11/15 10:33:37;;;;;;;15.18;10.20;;;7.10;93.30;;;;;;5091715;28;20060;-93
2023/11/15 10:36:29;;;;;;;14.60;10.15;;;7.10;93.10;;;;;;5101707;28;20392;-93
2023/11/15 10:38:55;;;;;;;13.75;8.77;;;7.00;93.10;;;;;;5082125;28;20374;-93
2023/11/15 10:41:29;;;;;;;20.97;10.67;;;6.90;93.10;;;;;;5099973;28;20061;-94
2023/11/15 10:43:57;;;;;;;23.58;10.95;;;6.90;93.30;;;;;;5091099;28;20067;-95
2023/11/15 10:46:29;;;;;;;18.85;10.63;;;6.90;93.20;;;;;;5136632;28;20083;-92
2023/11/15 10:48:58;;;;;;;15.40;10.55;;;7.00;93.30;;;;;;5112089;28;20133;-93
2023/11/15 10:51:40;;;;;;;13.60;9.55;;;7.10;93.20;;;;;;5093317;28;20031;-93
2023/11/15 10:54:09;;;;;;;31.42;13.13;;;7.20;92.70;;;;;;5111287;28;20028;-92
2023/11/15 10:56:37;;;;;;;19.08;10.15;;;7.00;93.00;;;;;;5125511;28;20027;-92
2023/11/15 10:59:05;;;;;;;15.43;10.25;;;6.90;92.60;;;;;;5078640;28;20022;-93
2023/11/15 11:01:34;;;;;;;15.05;10.13;;;6.80;92.70;;;;;;5091523;28;20047;-92
2023/11/15 11:04:07;;;;;;;22.08;9.82;;;6.80;92.80;;;;;;5122494;28;20031;-90
2023/11/15 11:06:48;;;;;;;13.20;9.38;;;6.80;92.90;;;;;;5105736;28;20028;-93
2023/11/15 11:09:22;;;;;;;14.30;10.15;;;6.80;92.80;;;;;;5118399;28;20028;-94
2023/11/15 11:12:10;;;;;;;11.13;8.57;;;6.60;93.00;;;;;;5092919;28;20015;-95
2023/11/15 11:14:36;;;;;;;15.27;9.07;;;6.60;93.30;;;;;;5088964;28;20493;-95
2023/11/15 11:17:02;;;;;;;17.10;10.55;;;6.50;93.30;;;;;;5092645;28;20024;-93
2023/11/15 11:19:28;;;;;;;14.18;9.13;;;6.30;93.40;;;;;;5087887;28;20035;-94
2023/11/15 11:24:29;;;;;;;16.80;9.57;;;6.20;93.60;;;;;;5130276;28;20016;-92
2023/11/15 11:27:17;;;;;;;18.40;9.57;;;6.20;93.60;;;;;;5126737;28;20016;-93
2023/11/15 11:29:49;;;;;;;18.83;9.85;;;6.10;93.70;;;;;;5094803;28;20050;-93
2023/11/15 11:32:31;;;;;;;17.02;10.70;;;6.00;93.90;;;;;;5119877;28;20030;-93
2023/11/15 11:35:06;;;;;;;17.77;9.23;;;6.00;94.00;;;;;;5111684;28;20039;-93
2023/11/15 11:37:50;;;;;;;19.30;11.30;;;6.00;94.10;;;;;;5090349;28;20020;-92
2023/11/15 11:40:18;;;;;;;12.68;10.07;;;6.00;94.20;;;;;;5108218;28;20111;-93
2023/11/15 11:42:48;;;;;;;19.88;11.23;;;6.00;94.20;;;;;;5108217;28;20519;-94
2023/11/15 11:45:15;;;;;;;16.10;9.70;;;6.00;94.20;;;;;;5096022;28;20047;-93
2023/11/15 11:47:46;;;;;;;24.25;10.18;;;6.00;94.20;;;;;;5109324;28;20112;-94
2023/11/15 11:50:24;;;;;;;28.35;11.98;;;6.00;94.20;;;;;;5088889;28;20030;-93
2023/11/15 11:52:55;;;;;;;24.50;11.75;;;5.90;94.40;;;;;;5095088;28;20114;-93
2023/11/15 11:55:23;;;;;;;35.85;13.18;;;5.90;94.50;;;;;;5105712;28;20076;-94
2023/11/15 11:57:52;;;;;;;16.50;10.55;;;5.90;94.50;;;;;;5093670;28;20024;-94
2023/11/15 12:00:20;;;;;;;23.65;11.80;;;5.90;94.50;;;;;;5123955;28;20062;-94
2023/11/15 12:02:49;;;;;;;15.88;9.60;;;5.80;94.60;;;;;;5093561;28;20502;-93
2023/11/15 12:05:23;;;;;;;16.90;10.38;;;5.80;94.60;;;;;;5109861;28;20028;-93
2023/11/15 12:07:51;;;;;;;21.45;12.30;;;5.70;94.70;;;;;;5099191;28;20019;-92
2023/11/15 12:10:19;;;;;;;22.15;11.98;;;5.80;94.80;;;;;;5100137;28;20035;-91
2023/11/15 12:12:59;;;;;;;21.65;10.73;;;5.80;94.90;;;;;;5109551;28;20043;-91
2023/11/15 12:15:28;;;;;;;21.70;11.25;;;5.80;94.90;;;;;;5088536;28;20080;-94
2023/11/15 12:17:59;;;;;;;17.13;10.70;;;5.80;94.80;;;;;;5103486;28;20025;-92
2023/11/15 12:20:41;;;;;;;17.30;11.70;;;5.80;94.90;;;;;;5076728;28;20028;-95
2023/11/15 12:23:17;;;;;;;17.73;11.02;;;5.80;94.90;;;;;;5120902;28;20034;-90
2023/11/15 12:25:48;;;;;;;24.20;12.93;;;5.80;94.80;;;;;;5111141;28;20016;-92
2023/11/15 12:28:22;;;;;;;25.73;13.30;;;5.80;95.00;;;;;;5116074;28;20039;-92
2023/11/15 12:30:50;;;;;;;17.05;11.90;;;5.80;95.00;;;;;;5098491;28;20106;-94
2023/11/15 12:33:17;;;;;;;19.02;12.43;;;5.70;95.00;;;;;;5091475;28;20016;-87
2023/11/15 12:35:44;;;;;;;14.55;10.45;;;5.80;95.00;;;;;;5106261;28;20043;-93
2023/11/15 12:38:14;;;;;;;18.90;12.02;;;5.70;95.00;;;;;;5098489;28;20020;-93
2023/11/15 12:40:41;;;;;;;19.65;10.50;;;5.70;95.10;;;;;;5096759;28;20227;-93
2023/11/15 12:43:19;;;;;;;22.52;13.13;;;5.70;95.20;;;;;;5129927;28;20043;-90
2023/11/15 12:45:45;;;;;;;47.70;15.25;;;5.80;95.20;;;;;;5103368;28;20063;-92